Time;durP1;ratioP1;P1;durP2;ratioP2;P2;SDS_P1;SDS_P2;PMS_P1;PMS_P2;Temp;Humidity;BMP_temperature;BMP_pressure;BME280_temperature;BME280_humidity;BME280_pressure;Samples;Min_cycle;Max_cycle;Signal;HPM_P1;HPM_P2
2022/03/25 00:02:00;;;;;;;1.77;1.43;;;10.80;99.90;;;;;;5027422;28;20202;-83
2022/03/25 00:04:25;;;;;;;0.73;0.73;;;10.90;99.90;;;;;;5026356;28;20573;-83
2022/03/25 00:06:52;;;;;;;2.93;2.73;;;10.90;99.90;;;;;;5023528;28;20194;-82
2022/03/25 00:09:17;;;;;;;4.17;1.23;;;10.80;99.90;;;;;;5024597;28;20190;-83
2022/03/25 00:11:43;;;;;;;1.80;1.27;;;10.80;99.90;;;;;;5025625;28;20194;-82
2022/03/25 00:14:09;;;;;;;2.40;2.20;;;10.80;99.90;;;;;;5025355;28;20222;-83
2022/03/25 00:16:35;;;;;;;1.77;1.53;;;10.70;99.90;;;;;;5023500;28;20175;-82
2022/03/25 00:19:00;;;;;;;1.20;1.20;;;10.70;99.90;;;;;;5026192;28;20251;-83
2022/03/25 00:21:26;;;;;;;2.43;1.57;;;10.70;99.90;;;;;;5024890;28;20232;-82
2022/03/25 00:23:51;;;;;;;1.93;1.10;;;10.70;99.90;;;;;;5023827;28;20233;-83
2022/03/25 00:26:17;;;;;;;0.87;0.73;;;10.70;99.90;;;;;;5024023;28;20186;-82
2022/03/25 00:28:43;;;;;;;1.37;1.27;;;10.60;99.90;;;;;;5023564;28;20201;-83
2022/03/25 00:31:08;;;;;;;0.73;0.73;;;10.50;99.90;;;;;;5024149;28;20195;-83
2022/03/25 00:33:35;;;;;;;3.50;1.90;;;10.60;99.90;;;;;;5024379;28;20236;-82
2022/03/25 00:36:01;;;;;;;4.03;3.73;;;10.50;99.90;;;;;;5024011;28;20183;-83
2022/03/25 00:38:27;;;;;;;4.37;2.83;;;10.40;99.90;;;;;;5023757;28;20193;-83
2022/03/25 00:40:53;;;;;;;4.77;1.57;;;10.30;99.90;;;;;;5024373;28;20178;-83
2022/03/25 00:43:20;;;;;;;0.93;0.77;;;10.10;99.90;;;;;;5024544;28;20725;-83
2022/03/25 00:45:46;;;;;;;1.47;1.23;;;10.00;99.90;;;;;;5024346;28;20195;-82
2022/03/25 00:48:13;;;;;;;2.43;1.67;;;9.90;99.90;;;;;;5024416;28;20209;-83
2022/03/25 00:50:39;;;;;;;0.67;0.67;;;10.00;99.90;;;;;;5023263;28;20198;-82
2022/03/25 00:53:05;;;;;;;1.10;0.83;;;10.00;99.90;;;;;;5024928;28;20687;-83
2022/03/25 00:55:30;;;;;;;2.77;1.90;;;10.00;99.90;;;;;;5025394;28;20189;-83
2022/03/25 00:57:58;;;;;;;5.27;4.43;;;10.00;99.90;;;;;;5026774;28;20337;-83
2022/03/25 01:00:24;;;;;;;2.47;1.73;;;9.90;99.90;;;;;;5026821;28;20189;-83
2022/03/25 01:02:49;;;;;;;6.63;2.07;;;9.80;99.90;;;;;;5023918;28;20182;-83
2022/03/25 01:05:17;;;;;;;1.10;1.00;;;9.80;99.90;;;;;;5023394;28;20271;-83
2022/03/25 01:07:43;;;;;;;1.47;1.10;;;9.70;99.90;;;;;;5020425;28;20187;-82
2022/03/25 01:10:09;;;;;;;2.67;1.37;;;9.50;99.90;;;;;;5023712;28;20190;-82
2022/03/25 01:12:35;;;;;;;2.00;1.90;;;9.30;99.90;;;;;;5024531;28;20178;-83
2022/03/25 01:15:01;;;;;;;6.67;2.17;;;9.10;99.90;;;;;;5024073;28;20209;-83
2022/03/25 01:17:28;;;;;;;2.87;2.00;;;8.90;99.90;;;;;;5024574;28;20203;-83
2022/03/25 01:19:53;;;;;;;2.17;1.27;;;8.90;99.90;;;;;;5025944;28;20268;-82
2022/03/25 01:22:19;;;;;;;2.83;2.50;;;8.80;99.90;;;;;;5024621;28;20186;-83
2022/03/25 01:24:44;;;;;;;1.77;1.67;;;8.70;99.90;;;;;;5025980;28;20214;-83
2022/03/25 01:27:10;;;;;;;2.67;2.47;;;8.70;99.90;;;;;;5024204;28;20198;-82
2022/03/25 01:29:36;;;;;;;2.77;2.60;;;8.70;99.90;;;;;;5024381;28;20194;-83
2022/03/25 01:32:03;;;;;;;3.70;1.53;;;8.60;99.90;;;;;;5023434;28;20714;-82
2022/03/25 01:34:29;;;;;;;2.00;1.77;;;8.60;99.90;;;;;;5025173;28;20288;-83
2022/03/25 01:36:54;;;;;;;1.53;1.03;;;8.60;99.90;;;;;;5026749;28;20305;-82
2022/03/25 01:39:20;;;;;;;2.03;1.93;;;8.60;99.90;;;;;;5026574;28;20178;-83
2022/03/25 01:41:47;;;;;;;2.27;2.07;;;8.60;99.90;;;;;;5022410;28;20269;-83
2022/03/25 01:44:13;;;;;;;1.57;1.10;;;8.50;99.90;;;;;;5024640;28;21244;-82
2022/03/25 01:46:39;;;;;;;1.63;1.17;;;8.50;99.90;;;;;;5023546;28;20280;-82
2022/03/25 01:49:05;;;;;;;2.40;2.17;;;8.60;99.90;;;;;;5025503;28;20539;-82
2022/03/25 01:51:36;;;;;;;6.00;2.00;;;8.60;99.90;;;;;;5024579;28;20871;-82
2022/03/25 01:54:17;;;;;;;1.23;1.13;;;8.60;99.90;;;;;;5025626;28;20232;-82
2022/03/25 01:56:43;;;;;;;2.20;1.67;;;8.60;99.90;;;;;;5025017;28;20181;-83
2022/03/25 01:59:10;;;;;;;0.80;0.80;;;8.70;99.90;;;;;;5022931;28;20196;-83
2022/03/25 02:01:36;;;;;;;0.93;0.77;;;8.70;99.90;;;;;;5025027;28;20190;-82
2022/03/25 02:04:02;;;;;;;3.53;1.57;;;8.80;99.90;;;;;;5023837;28;21299;-82
2022/03/25 02:06:27;;;;;;;1.60;1.10;;;8.80;99.90;;;;;;5022751;28;20208;-82
2022/03/25 02:08:53;;;;;;;1.63;1.43;;;8.80;99.90;;;;;;5023104;28;20563;-83
2022/03/25 02:11:19;;;;;;;4.90;1.37;;;8.80;99.90;;;;;;5023753;28;20185;-82
2022/03/25 02:13:45;;;;;;;1.03;1.03;;;8.80;99.90;;;;;;5021842;28;20224;-82
2022/03/25 02:16:10;;;;;;;2.40;1.73;;;8.70;99.90;;;;;;5023671;28;20221;-82
2022/03/25 02:18:36;;;;;;;2.47;1.73;;;8.70;99.90;;;;;;5022764;28;20195;-83
2022/03/25 02:21:01;;;;;;;1.40;1.20;;;8.70;99.90;;;;;;5024610;28;20623;-82
2022/03/25 02:23:27;;;;;;;2.87;2.63;;;8.80;99.90;;;;;;5022464;28;20216;-82
2022/03/25 02:25:53;;;;;;;1.63;1.17;;;8.80;99.90;;;;;;5022640;28;20556;-83
2022/03/25 02:28:20;;;;;;;3.70;2.67;;;8.90;99.90;;;;;;5023863;28;20204;-82
2022/03/25 02:30:46;;;;;;;4.03;2.33;;;8.90;99.90;;;;;;5023164;28;20205;-82
2022/03/25 02:33:12;;;;;;;1.93;1.83;;;8.80;99.90;;;;;;5023500;28;20217;-83
2022/03/25 02:35:43;;;;;;;3.63;2.07;;;8.80;99.90;;;;;;5023273;28;20178;-83
2022/03/25 02:38:17;;;;;;;1.70;1.53;;;8.70;99.90;;;;;;5022803;28;20197;-83
2022/03/25 02:40:43;;;;;;;3.70;2.63;;;8.70;99.90;;;;;;5023796;28;20175;-82
2022/03/25 02:43:11;;;;;;;6.43;2.63;;;8.60;99.90;;;;;;5023546;28;20280;-82
2022/03/25 02:45:37;;;;;;;2.40;1.60;;;8.50;99.90;;;;;;5023591;28;20411;-82
2022/03/25 02:48:03;;;;;;;3.57;1.67;;;8.50;99.90;;;;;;5021758;28;20204;-83
2022/03/25 02:50:30;;;;;;;3.10;2.23;;;8.40;99.90;;;;;;5024658;28;20194;-82
2022/03/25 02:52:56;;;;;;;5.37;0.93;;;8.30;99.90;;;;;;5024588;28;20646;-83
2022/03/25 02:55:22;;;;;;;2.73;1.70;;;8.30;99.90;;;;;;5023253;28;20201;-82
2022/03/25 02:57:48;;;;;;;1.73;1.40;;;8.20;99.90;;;;;;5024475;28;20186;-83
2022/03/25 03:00:14;;;;;;;5.90;1.73;;;8.10;99.90;;;;;;5022361;28;20186;-82
2022/03/25 03:02:39;;;;;;;1.63;1.53;;;8.10;99.90;;;;;;5022880;28;20185;-82
2022/03/25 03:05:08;;;;;;;3.23;1.87;;;8.10;99.90;;;;;;5022964;28;20327;-83
2022/03/25 03:07:35;;;;;;;2.00;1.27;;;8.10;99.90;;;;;;5023006;28;20181;-83
2022/03/25 03:10:03;;;;;;;1.60;1.50;;;8.10;99.90;;;;;;5022412;28;20189;-82
2022/03/25 03:12:29;;;;;;;3.53;1.30;;;8.10;99.90;;;;;;5022489;28;20194;-83
2022/03/25 03:14:57;;;;;;;2.93;2.33;;;7.80;99.90;;;;;;5022895;28;20243;-83
2022/03/25 03:17:22;;;;;;;3.60;2.77;;;7.60;99.90;;;;;;5022904;28;20196;-83
2022/03/25 03:19:50;;;;;;;1.33;1.13;;;7.50;99.90;;;;;;5022761;28;20186;-83
2022/03/25 03:22:17;;;;;;;1.27;1.17;;;7.60;99.90;;;;;;5023623;28;20185;-83
2022/03/25 03:24:43;;;;;;;1.87;1.77;;;7.60;99.90;;;;;;5022551;28;20232;-82
2022/03/25 03:27:08;;;;;;;7.57;4.17;;;7.60;99.90;;;;;;5020096;28;20264;-82
2022/03/25 03:29:34;;;;;;;2.10;1.37;;;7.50;99.90;;;;;;5031196;28;20196;-83
2022/03/25 03:31:59;;;;;;;4.00;1.33;;;7.50;99.90;;;;;;5023035;28;20192;-82
2022/03/25 03:34:25;;;;;;;5.83;2.03;;;7.30;99.90;;;;;;5024192;28;20232;-82
2022/03/25 03:36:50;;;;;;;4.77;2.13;;;7.40;99.90;;;;;;5025050;28;20206;-83
2022/03/25 03:39:16;;;;;;;2.90;1.63;;;7.40;99.90;;;;;;5026551;28;20242;-82
2022/03/25 03:41:42;;;;;;;1.20;1.10;;;7.40;99.90;;;;;;5027962;28;20212;-83
2022/03/25 03:44:07;;;;;;;1.63;1.33;;;7.40;99.90;;;;;;5022323;28;20223;-82
2022/03/25 03:46:33;;;;;;;7.03;1.10;;;7.40;99.90;;;;;;5024929;28;20650;-83
2022/03/25 03:48:59;;;;;;;2.67;1.63;;;7.50;99.90;;;;;;5026548;28;20667;-82
2022/03/25 03:51:24;;;;;;;1.90;1.53;;;7.50;99.90;;;;;;5027579;28;20190;-83
2022/03/25 03:53:50;;;;;;;3.20;1.87;;;7.50;99.90;;;;;;5027555;28;20301;-83
2022/03/25 03:56:15;;;;;;;1.10;1.10;;;7.50;99.90;;;;;;5026600;28;20208;-83
2022/03/25 03:58:41;;;;;;;1.50;1.40;;;7.60;99.90;;;;;;5027107;28;20241;-83
2022/03/25 04:01:07;;;;;;;2.03;1.90;;;7.60;99.90;;;;;;5024983;28;20189;-83
2022/03/25 04:03:32;;;;;;;2.30;2.20;;;7.60;99.90;;;;;;5026779;28;20545;-83
2022/03/25 04:06:00;;;;;;;3.90;2.00;;;7.50;99.90;;;;;;5023860;28;20754;-83
2022/03/25 04:08:25;;;;;;;0.90;0.67;;;7.50;99.90;;;;;;5025268;28;20189;-83
2022/03/25 04:10:52;;;;;;;1.40;1.30;;;7.50;99.90;;;;;;5026231;28;20197;-83
2022/03/25 04:13:17;;;;;;;4.20;2.27;;;7.50;99.90;;;;;;5024575;28;20791;-83
2022/03/25 04:15:43;;;;;;;1.60;1.00;;;7.50;99.90;;;;;;5023169;28;20185;-83
2022/03/25 04:18:08;;;;;;;2.27;1.57;;;7.50;99.90;;;;;;5024965;28;20185;-83
2022/03/25 04:20:34;;;;;;;0.57;0.57;;;7.50;99.90;;;;;;5024793;28;20189;-83
2022/03/25 04:23:00;;;;;;;1.70;1.60;;;7.50;99.90;;;;;;5025607;28;20188;-83
2022/03/25 04:25:25;;;;;;;2.97;1.97;;;7.60;99.90;;;;;;5025329;28;21164;-83
2022/03/25 04:27:53;;;;;;;1.67;1.33;;;7.60;99.90;;;;;;5025278;28;20206;-82
2022/03/25 04:30:24;;;;;;;2.23;1.63;;;7.50;99.90;;;;;;5025394;28;20248;-83
2022/03/25 04:32:50;;;;;;;1.20;1.10;;;7.50;99.90;;;;;;5025622;28;20188;-82
2022/03/25 04:35:17;;;;;;;1.43;1.00;;;7.40;99.90;;;;;;5024352;28;20214;-83
2022/03/25 04:37:43;;;;;;;2.07;1.53;;;7.40;99.90;;;;;;5023010;28;20188;-83
2022/03/25 04:40:13;;;;;;;3.30;1.60;;;7.40;99.90;;;;;;5024879;28;20192;-82
2022/03/25 04:42:39;;;;;;;0.80;0.67;;;7.30;99.90;;;;;;5034786;28;20259;-83
2022/03/25 04:45:05;;;;;;;3.63;2.77;;;7.30;99.90;;;;;;5025717;28;20287;-83
2022/03/25 04:47:30;;;;;;;1.27;0.73;;;7.20;99.90;;;;;;5024173;28;20656;-83
2022/03/25 04:49:56;;;;;;;1.77;0.93;;;7.20;99.90;;;;;;5024612;28;20195;-83
2022/03/25 04:52:21;;;;;;;1.87;1.63;;;7.20;99.90;;;;;;5025797;28;20186;-83
2022/03/25 04:54:47;;;;;;;1.00;1.00;;;7.10;99.90;;;;;;5026102;28;20698;-83
2022/03/25 04:57:12;;;;;;;1.57;1.27;;;7.10;99.90;;;;;;5024559;28;20183;-83
2022/03/25 04:59:38;;;;;;;1.47;1.37;;;6.90;99.90;;;;;;5025896;28;20221;-83
2022/03/25 05:02:04;;;;;;;1.50;1.40;;;6.90;99.90;;;;;;5023188;28;20196;-83
2022/03/25 05:04:29;;;;;;;2.00;1.27;;;6.90;99.90;;;;;;5024548;28;20206;-83
2022/03/25 05:06:55;;;;;;;7.67;1.33;;;6.90;99.90;;;;;;5022912;28;20208;-83
2022/03/25 05:09:20;;;;;;;1.50;1.00;;;7.00;99.90;;;;;;5023318;28;20206;-83
2022/03/25 05:11:46;;;;;;;2.30;1.20;;;7.00;99.90;;;;;;5023503;28;20189;-83
2022/03/25 05:14:11;;;;;;;1.53;1.43;;;7.00;99.90;;;;;;5023950;28;20259;-82
2022/03/25 05:16:37;;;;;;;3.53;1.67;;;7.00;99.90;;;;;;5025051;28;20179;-83
2022/03/25 05:19:03;;;;;;;2.50;1.73;;;7.00;99.90;;;;;;5024953;28;20187;-83
2022/03/25 05:21:29;;;;;;;1.83;1.67;;;6.90;99.90;;;;;;5023399;28;20185;-83
2022/03/25 05:23:54;;;;;;;2.53;1.83;;;7.00;99.90;;;;;;5022841;28;20675;-83
2022/03/25 05:26:20;;;;;;;3.90;1.27;;;6.80;99.90;;;;;;5023936;28;20206;-83
2022/03/25 05:28:46;;;;;;;2.57;1.27;;;6.80;99.90;;;;;;5023841;28;20196;-83
2022/03/25 05:31:12;;;;;;;2.03;1.93;;;6.70;99.90;;;;;;5023273;28;20190;-83
2022/03/25 05:33:38;;;;;;;0.67;0.67;;;6.60;99.90;;;;;;5023619;28;20226;-82
2022/03/25 05:36:04;;;;;;;1.07;1.00;;;6.70;99.90;;;;;;5023782;28;20220;-83
2022/03/25 05:38:30;;;;;;;1.60;0.70;;;6.80;99.90;;;;;;5026247;28;20274;-83
2022/03/25 05:40:56;;;;;;;1.57;0.93;;;6.90;99.90;;;;;;5024125;28;20537;-82
2022/03/25 05:43:22;;;;;;;1.73;1.63;;;7.00;99.90;;;;;;5024389;28;20295;-83
2022/03/25 05:45:48;;;;;;;1.27;1.13;;;7.10;99.90;;;;;;5024034;28;20269;-82
2022/03/25 05:48:13;;;;;;;1.90;1.57;;;7.10;99.90;;;;;;5022804;28;20189;-83
2022/03/25 05:50:39;;;;;;;2.43;2.23;;;7.20;99.90;;;;;;5024539;28;20212;-83
2022/03/25 05:53:05;;;;;;;1.53;1.37;;;7.20;99.90;;;;;;5022731;28;20238;-83
2022/03/25 05:55:32;;;;;;;2.03;1.37;;;7.20;99.90;;;;;;5023185;28;20204;-82
2022/03/25 05:57:57;;;;;;;2.57;2.23;;;7.30;99.90;;;;;;5023934;28;20256;-82
2022/03/25 06:00:23;;;;;;;1.57;1.47;;;7.30;99.90;;;;;;5023320;28;20678;-82
2022/03/25 06:02:49;;;;;;;2.20;1.87;;;7.30;99.90;;;;;;5022298;28;20218;-82
2022/03/25 06:05:15;;;;;;;2.07;1.83;;;7.40;99.90;;;;;;5023014;28;20311;-82
2022/03/25 06:07:43;;;;;;;2.10;1.57;;;7.50;99.90;;;;;;5021405;28;20208;-83
2022/03/25 06:10:10;;;;;;;1.13;1.10;;;7.50;99.90;;;;;;5022663;28;20251;-85
2022/03/25 06:12:36;;;;;;;1.63;1.47;;;7.60;99.90;;;;;;5029805;28;20187;-82
2022/03/25 06:15:03;;;;;;;1.20;0.87;;;7.70;99.90;;;;;;5021405;28;20272;-81
2022/03/25 06:17:29;;;;;;;1.30;1.03;;;7.70;99.90;;;;;;5022572;28;20192;-82
2022/03/25 06:19:54;;;;;;;2.00;1.80;;;7.80;99.90;;;;;;5025315;28;20175;-82
2022/03/25 06:22:20;;;;;;;5.83;1.90;;;7.90;99.90;;;;;;5025552;28;20651;-82
2022/03/25 06:24:45;;;;;;;5.73;2.37;;;8.00;99.90;;;;;;5022303;28;20221;-82
2022/03/25 06:27:11;;;;;;;0.87;0.87;;;8.00;99.90;;;;;;5018647;28;20652;-81
2022/03/25 06:29:38;;;;;;;1.30;1.03;;;8.10;99.90;;;;;;5025786;28;20194;-82
2022/03/25 06:32:05;;;;;;;1.63;1.53;;;8.20;99.90;;;;;;5023548;28;20194;-82
2022/03/25 06:34:31;;;;;;;1.00;1.00;;;8.30;99.90;;;;;;5022768;28;20217;-82
2022/03/25 06:36:56;;;;;;;2.03;1.93;;;8.40;99.90;;;;;;5022541;28;20184;-83
2022/03/25 06:39:22;;;;;;;1.17;0.97;;;8.60;99.90;;;;;;5021150;28;20255;-83
2022/03/25 06:41:47;;;;;;;1.40;1.30;;;8.70;99.90;;;;;;5024358;28;20244;-84
2022/03/25 06:44:13;;;;;;;1.97;1.47;;;8.80;99.90;;;;;;5022353;28;20221;-83
2022/03/25 06:46:39;;;;;;;1.00;0.93;;;9.00;99.90;;;;;;5022890;28;20182;-84
2022/03/25 06:49:05;;;;;;;3.07;1.23;;;9.10;99.90;;;;;;5024617;28;20189;-83
2022/03/25 06:51:31;;;;;;;2.07;1.87;;;9.20;99.90;;;;;;5024746;28;20187;-84
2022/03/25 06:53:57;;;;;;;4.17;2.20;;;9.30;99.90;;;;;;5023882;28;20214;-84
2022/03/25 06:56:23;;;;;;;1.07;1.00;;;9.30;99.90;;;;;;5022827;28;20712;-84
2022/03/25 06:58:49;;;;;;;8.97;1.70;;;9.40;99.90;;;;;;5023836;28;20205;-84
2022/03/25 07:01:16;;;;;;;2.83;1.97;;;9.50;99.90;;;;;;5022236;28;20186;-84
2022/03/25 07:03:42;;;;;;;4.03;2.13;;;9.50;99.90;;;;;;5024116;28;20252;-84
2022/03/25 07:06:09;;;;;;;1.70;1.27;;;9.60;99.90;;;;;;5023070;28;20224;-84
2022/03/25 07:08:35;;;;;;;3.23;1.40;;;9.70;99.90;;;;;;5025872;28;20187;-84
2022/03/25 07:11:01;;;;;;;1.63;1.53;;;9.70;99.90;;;;;;5028569;28;20186;-84
2022/03/25 07:13:27;;;;;;;1.53;1.43;;;9.80;99.90;;;;;;5028186;28;20209;-83
2022/03/25 07:15:54;;;;;;;11.67;1.80;;;9.80;99.90;;;;;;5028942;28;20202;-84
2022/03/25 07:18:20;;;;;;;4.77;2.37;;;9.90;99.90;;;;;;5028418;28;20189;-83
2022/03/25 07:20:45;;;;;;;2.20;1.47;;;9.90;99.90;;;;;;5026718;28;20292;-84
2022/03/25 07:23:11;;;;;;;3.97;2.57;;;10.00;99.90;;;;;;5027294;28;20659;-84
2022/03/25 07:25:37;;;;;;;4.03;2.07;;;10.20;99.90;;;;;;5027571;28;20197;-83
2022/03/25 07:28:03;;;;;;;3.00;1.33;;;10.40;99.90;;;;;;5027221;28;20235;-83
2022/03/25 07:30:28;;;;;;;2.43;2.03;;;10.50;99.90;;;;;;5025229;28;20289;-84
2022/03/25 07:32:54;;;;;;;2.80;2.60;;;10.70;99.90;;;;;;5025770;28;20202;-84
2022/03/25 07:35:19;;;;;;;2.47;1.93;;;10.80;99.90;;;;;;5025766;28;20211;-82
2022/03/25 07:37:45;;;;;;;2.33;1.83;;;11.00;99.90;;;;;;5026716;28;20193;-83
2022/03/25 07:40:13;;;;;;;4.03;1.87;;;11.00;99.90;;;;;;5025632;28;20194;-84
2022/03/25 07:42:40;;;;;;;1.53;1.43;;;11.20;99.90;;;;;;5027396;28;20174;-83
2022/03/25 07:45:08;;;;;;;1.53;1.43;;;11.20;99.90;;;;;;5024598;28;20683;-83
2022/03/25 07:47:38;;;;;;;4.97;2.37;;;11.40;99.90;;;;;;5026377;28;20185;-83
2022/03/25 07:50:04;;;;;;;1.83;1.60;;;11.60;99.90;;;;;;5026443;28;20182;-84
2022/03/25 07:52:31;;;;;;;6.80;2.60;;;11.80;99.90;;;;;;5025601;28;20225;-84
2022/03/25 07:54:56;;;;;;;6.63;3.50;;;11.80;99.90;;;;;;5026468;28;20695;-83
2022/03/25 07:57:22;;;;;;;2.17;1.73;;;12.00;99.90;;;;;;5026279;28;20237;-84
2022/03/25 07:59:48;;;;;;;8.53;2.50;;;12.10;99.90;;;;;;5027131;28;20228;-84
2022/03/25 08:02:14;;;;;;;3.37;3.03;;;12.10;99.90;;;;;;5022627;28;20263;-85
2022/03/25 08:04:40;;;;;;;2.90;2.37;;;12.30;99.90;;;;;;5023435;28;20230;-84
2022/03/25 08:07:05;;;;;;;5.90;1.60;;;12.40;99.90;;;;;;5026020;28;20241;-81
2022/03/25 08:09:31;;;;;;;3.13;2.30;;;12.50;99.90;;;;;;5025208;28;21064;-81
2022/03/25 08:11:56;;;;;;;5.97;4.23;;;12.50;99.90;;;;;;5025027;28;20248;-81
2022/03/25 08:14:22;;;;;;;1.53;1.43;;;12.50;99.90;;;;;;5023841;28;20222;-80
2022/03/25 08:16:47;;;;;;;2.50;2.20;;;12.60;99.90;;;;;;5024638;28;20683;-81
2022/03/25 08:19:13;;;;;;;2.57;1.87;;;12.80;99.90;;;;;;5026119;28;20193;-82
2022/03/25 08:21:39;;;;;;;2.67;2.47;;;12.90;99.90;;;;;;5024170;28;20179;-82
2022/03/25 08:29:35;;;;;;;2.57;1.63;;;13.30;99.90;;;;;;5025128;28;20186;-82
2022/03/25 08:32:02;;;;;;;2.53;1.30;;;13.40;99.90;;;;;;5022182;28;20194;-82
2022/03/25 08:34:28;;;;;;;5.10;2.93;;;13.60;99.90;;;;;;5023523;28;20805;-81
2022/03/25 08:36:54;;;;;;;5.03;2.17;;;13.70;99.90;;;;;;5024197;28;20176;-82
2022/03/25 08:39:22;;;;;;;4.73;2.53;;;13.90;99.90;;;;;;5020579;28;20606;-81
2022/03/25 08:41:48;;;;;;;3.10;2.63;;;13.80;99.90;;;;;;5024466;28;20180;-81
2022/03/25 08:44:14;;;;;;;3.77;2.67;;;14.00;99.90;;;;;;5024525;28;20217;-82
2022/03/25 08:46:40;;;;;;;4.00;3.13;;;14.10;99.90;;;;;;5023018;28;20267;-82
2022/03/25 08:49:07;;;;;;;5.63;2.70;;;14.30;99.90;;;;;;5023845;28;20208;-82
2022/03/25 08:51:33;;;;;;;6.03;2.70;;;14.10;99.90;;;;;;5023622;28;20192;-82
2022/03/25 08:53:58;;;;;;;4.00;3.13;;;14.20;99.90;;;;;;5023512;28;20229;-82
2022/03/25 08:56:24;;;;;;;4.77;2.07;;;13.90;99.90;;;;;;5024265;28;20678;-82
2022/03/25 08:58:54;;;;;;;2.73;1.97;;;14.00;99.90;;;;;;5026873;28;20269;-82
2022/03/25 09:01:23;;;;;;;5.27;2.00;;;14.40;99.90;;;;;;5027051;28;20207;-82
2022/03/25 09:03:49;;;;;;;4.53;1.67;;;14.70;99.90;;;;;;5023999;28;20264;-82
2022/03/25 09:06:15;;;;;;;7.60;2.80;;;14.70;99.90;;;;;;5028168;28;20233;-82
2022/03/25 09:08:40;;;;;;;4.67;3.40;;;15.20;99.90;;;;;;5027886;28;20181;-82
2022/03/25 09:11:06;;;;;;;2.03;1.93;;;15.50;99.90;;;;;;5030460;28;20186;-82
2022/03/25 09:13:32;;;;;;;2.10;1.97;;;15.80;99.90;;;;;;5025598;28;20332;-82
2022/03/25 09:15:57;;;;;;;6.03;1.70;;;16.00;99.90;;;;;;5025754;28;20319;-82
2022/03/25 09:18:23;;;;;;;5.67;4.93;;;16.00;99.90;;;;;;5028586;28;20265;-82
2022/03/25 09:20:49;;;;;;;3.17;2.87;;;15.40;99.90;;;;;;5027676;28;20179;-81
2022/03/25 09:23:15;;;;;;;3.63;3.07;;;15.50;99.90;;;;;;5029005;28;20197;-82
2022/03/25 09:25:41;;;;;;;3.17;2.90;;;16.00;99.90;;;;;;5027825;28;20865;-82
2022/03/25 09:28:07;;;;;;;4.17;3.03;;;16.20;99.90;;;;;;5028510;28;20195;-82
2022/03/25 09:30:33;;;;;;;7.97;4.37;;;16.60;99.90;;;;;;5026896;28;20191;-82
2022/03/25 09:32:58;;;;;;;3.20;2.27;;;16.80;99.90;;;;;;5026427;28;20193;-82
2022/03/25 09:35:24;;;;;;;4.77;2.63;;;17.00;99.90;;;;;;5026628;28;20198;-82
2022/03/25 09:37:51;;;;;;;3.80;3.17;;;17.20;99.90;;;;;;5027560;28;20179;-82
2022/03/25 09:40:20;;;;;;;4.53;3.13;;;17.30;99.90;;;;;;5007088;28;22139;-82
2022/03/25 09:42:46;;;;;;;4.37;3.50;;;17.40;99.90;;;;;;5019328;28;20183;-82
2022/03/25 09:45:15;;;;;;;7.07;3.40;;;17.10;99.90;;;;;;5024527;28;20213;-82
2022/03/25 09:47:42;;;;;;;7.83;2.93;;;16.90;99.90;;;;;;5028542;28;20201;-81
2022/03/25 09:50:12;;;;;;;6.10;3.20;;;17.10;99.90;;;;;;5027136;28;20222;-82
2022/03/25 09:52:38;;;;;;;2.80;2.60;;;17.40;99.90;;;;;;5024357;28;20183;-82
2022/03/25 09:55:04;;;;;;;3.33;2.70;;;17.60;99.90;;;;;;5021690;28;20727;-82
2022/03/25 09:57:31;;;;;;;3.20;2.77;;;17.80;99.90;;;;;;5025090;28;20595;-82
2022/03/25 09:59:57;;;;;;;11.77;5.33;;;17.90;99.90;;;;;;5024652;28;20204;-82
2022/03/25 10:02:26;;;;;;;8.13;4.80;;;17.20;99.90;;;;;;5025183;28;20240;-82
2022/03/25 10:04:53;;;;;;;6.50;4.43;;;17.00;99.90;;;;;;5024287;28;20220;-84
2022/03/25 10:07:27;;;;;;;10.47;4.97;;;16.70;99.90;;;;;;5021412;28;20673;-84
2022/03/25 10:10:10;;;;;;;5.63;4.67;;;16.40;99.90;;;;;;5024672;28;20178;-84
2022/03/25 10:12:37;;;;;;;5.43;2.47;;;16.70;99.90;;;;;;5023254;28;20665;-80
2022/03/25 10:15:13;;;;;;;7.70;4.80;;;17.20;99.90;;;;;;5023749;28;20722;-81
2022/03/25 10:18:11;;;;;;;5.13;3.93;;;17.70;99.90;;;;;;5025015;28;20273;-82
2022/03/25 10:20:40;;;;;;;5.67;4.30;;;18.20;99.90;;;;;;5007968;28;20202;-81
2022/03/25 10:23:11;;;;;;;6.40;3.73;;;18.30;99.90;;;;;;5026288;28;20197;-82
2022/03/25 10:25:47;;;;;;;3.37;2.63;;;18.60;99.90;;;;;;5024023;28;20179;-82
2022/03/25 10:28:31;;;;;;;4.27;3.20;;;18.80;99.90;;;;;;5021428;28;20216;-82
2022/03/25 10:31:11;;;;;;;7.17;2.93;;;18.40;99.90;;;;;;5024902;28;20189;-81
2022/03/25 10:33:46;;;;;;;5.47;4.90;;;18.50;99.90;;;;;;5026449;28;20209;-82
2022/03/25 10:36:17;;;;;;;5.97;3.57;;;17.80;99.90;;;;;;5026259;28;20212;-81
2022/03/25 10:38:48;;;;;;;8.13;3.00;;;18.30;99.90;;;;;;5025182;28;20179;-81
2022/03/25 10:41:19;;;;;;;2.53;2.17;;;18.70;99.90;;;;;;5023991;28;20289;-82
2022/03/25 10:43:51;;;;;;;6.77;5.00;;;18.70;99.90;;;;;;5027779;28;20710;-82
2022/03/25 10:46:49;;;;;;;7.57;4.07;;;18.50;99.90;;;;;;5028018;28;20189;-82
2022/03/25 10:49:17;;;;;;;5.57;3.60;;;17.80;99.90;;;;;;5016048;28;20280;-81
2022/03/25 10:51:52;;;;;;;7.43;4.20;;;18.00;99.90;;;;;;5028295;28;20178;-81
2022/03/25 10:54:22;;;;;;;6.40;4.27;;;18.50;99.90;;;;;;5025447;28;20276;-82
2022/03/25 10:56:49;;;;;;;5.30;3.17;;;18.40;99.90;;;;;;5023436;28;20181;-82
2022/03/25 10:59:35;;;;;;;5.13;3.10;;;18.60;99.90;;;;;;5024988;28;20268;-83
2022/03/25 11:02:02;;;;;;;4.63;3.70;;;18.70;99.90;;;;;;5017179;28;20206;-82
2022/03/25 11:04:29;;;;;;;10.80;4.93;;;18.00;99.90;;;;;;5021183;28;20222;-82
2022/03/25 11:06:56;;;;;;;7.97;4.67;;;18.60;99.90;;;;;;5018160;28;20209;-81
2022/03/25 11:09:23;;;;;;;4.07;3.07;;;18.30;99.90;;;;;;5042825;28;20287;-81
2022/03/25 11:11:51;;;;;;;10.90;5.43;;;18.30;99.90;;;;;;5028834;28;20240;-81
2022/03/25 11:14:17;;;;;;;5.27;3.93;;;18.50;99.90;;;;;;5024106;28;20218;-81
2022/03/25 11:16:45;;;;;;;5.03;3.30;;;18.60;99.90;;;;;;5027900;28;20183;-81
2022/03/25 11:19:11;;;;;;;10.07;4.70;;;18.90;99.90;;;;;;5025858;28;20185;-81
2022/03/25 11:21:45;;;;;;;4.60;3.40;;;19.20;99.90;;;;;;5027105;28;20179;-82
2022/03/25 11:24:31;;;;;;;10.50;4.60;;;19.40;99.90;;;;;;5023775;28;20242;-82
2022/03/25 11:26:59;;;;;;;6.63;4.17;;;19.60;99.90;;;;;;5027655;28;20207;-81
2022/03/25 11:29:31;;;;;;;8.40;4.70;;;19.40;99.90;;;;;;5025532;28;20660;-81
2022/03/25 11:32:07;;;;;;;7.77;3.97;;;19.00;99.90;;;;;;5025985;28;20299;-82
2022/03/25 11:34:38;;;;;;;5.27;3.77;;;18.60;99.90;;;;;;5025048;28;20560;-81
2022/03/25 11:37:28;;;;;;;4.83;3.60;;;19.00;99.90;;;;;;5024483;28;20184;-81
2022/03/25 11:40:12;;;;;;;7.20;3.67;;;18.90;99.90;;;;;;5025377;28;20198;-82
2022/03/25 11:42:43;;;;;;;6.30;4.73;;;19.00;99.90;;;;;;5024224;28;20243;-81
2022/03/25 11:45:21;;;;;;;5.87;2.97;;;18.70;99.90;;;;;;5024977;28;20240;-82
2022/03/25 11:48:04;;;;;;;5.70;4.40;;;19.20;99.90;;;;;;5027030;28;20188;-81
2022/03/25 11:50:36;;;;;;;9.00;5.70;;;19.30;99.90;;;;;;5026264;28;20186;-81
2022/03/25 11:53:10;;;;;;;7.83;4.53;;;19.10;99.90;;;;;;5024113;28;20202;-82
2022/03/25 11:55:56;;;;;;;5.83;3.63;;;19.30;99.90;;;;;;5023925;28;20209;-81
2022/03/25 11:58:22;;;;;;;10.70;4.70;;;18.80;99.90;;;;;;5025333;28;20191;-81
2022/03/25 12:00:52;;;;;;;6.50;5.63;;;18.60;99.90;;;;;;5024686;28;20221;-81
2022/03/25 12:03:18;;;;;;;4.57;3.90;;;18.70;99.90;;;;;;5024468;28;20823;-81
2022/03/25 12:06:02;;;;;;;5.70;4.67;;;18.80;99.90;;;;;;5023805;28;20193;-81
2022/03/25 12:08:31;;;;;;;4.53;4.10;;;19.00;99.90;;;;;;5026873;28;20658;-81
2022/03/25 12:11:00;;;;;;;11.03;4.80;;;18.80;99.90;;;;;;5024928;28;20225;-82
2022/03/25 12:13:54;;;;;;;10.80;4.67;;;19.30;99.90;;;;;;5023604;28;20739;-81
2022/03/25 12:16:47;;;;;;;4.67;3.10;;;19.30;99.90;;;;;;5024346;28;20238;-81
2022/03/25 12:19:25;;;;;;;9.37;4.33;;;19.40;99.80;;;;;;5029503;28;20187;-81
2022/03/25 12:21:52;;;;;;;5.17;2.93;;;19.20;99.90;;;;;;5026211;28;20189;-81
2022/03/25 12:24:18;;;;;;;6.63;3.90;;;19.70;99.90;;;;;;5025214;28;20301;-81
2022/03/25 12:26:44;;;;;;;8.73;5.17;;;19.30;99.80;;;;;;5024854;28;20204;-82
2022/03/25 12:29:10;;;;;;;4.97;2.83;;;19.60;99.70;;;;;;5029077;28;20189;-82
2022/03/25 12:31:35;;;;;;;4.33;3.93;;;20.00;99.40;;;;;;5026302;28;20183;-81
2022/03/25 12:34:06;;;;;;;4.33;3.97;;;18.90;99.70;;;;;;5024087;28;20224;-81
2022/03/25 12:36:44;;;;;;;5.50;3.47;;;19.00;99.90;;;;;;5025280;28;20184;-81
2022/03/25 12:39:14;;;;;;;4.07;2.40;;;19.40;99.70;;;;;;5024632;28;20192;-81
2022/03/25 12:41:46;;;;;;;8.97;3.57;;;19.60;99.90;;;;;;5024184;28;20182;-81
2022/03/25 12:44:13;;;;;;;4.33;3.27;;;19.70;98.40;;;;;;5022451;28;20308;-82
2022/03/25 12:46:38;;;;;;;5.67;3.53;;;19.60;98.90;;;;;;5025698;28;20304;-82
2022/03/25 12:49:06;;;;;;;5.20;4.80;;;20.00;99.40;;;;;;5025275;28;20722;-82
2022/03/25 12:51:32;;;;;;;3.63;2.80;;;19.20;99.50;;;;;;5025587;28;20197;-82
2022/03/25 12:53:58;;;;;;;5.07;3.53;;;19.40;99.70;;;;;;5023139;28;20218;-82
2022/03/25 12:56:24;;;;;;;2.67;2.10;;;19.60;98.90;;;;;;5020436;28;20219;-81
2022/03/25 12:58:52;;;;;;;4.53;3.03;;;19.70;99.40;;;;;;5021786;28;20545;-82